Time;durP1;ratioP1;P1;durP2;ratioP2;P2;SDS_P1;SDS_P2;PMS_P1;PMS_P2;Temp;Humidity;BMP_temperature;BMP_pressure;BME280_temperature;BME280_humidity;BME280_pressure;Samples;Min_cycle;Max_cycle;Signal;HPM_P1;HPM_P2
2024/03/31 00:01:19;;;;;;;8.80;4.10;;;;;;;12.69;71.49;99576.83;107546;1254;61259;-72
2024/03/31 00:03:46;;;;;;;8.60;4.30;;;;;;;12.74;71.45;99575.54;107954;1251;61106;-72
2024/03/31 00:06:14;;;;;;;8.20;4.80;;;;;;;12.73;71.49;99569.98;107868;1253;73449;-71
2024/03/31 00:08:41;;;;;;;7.20;4.50;;;;;;;12.67;71.80;99572.79;107861;1251;69051;-73
2024/03/31 00:11:11;;;;;;;15.10;4.70;;;;;;;12.63;72.09;99568.88;107834;1251;72695;-74
2024/03/31 00:13:38;;;;;;;9.30;4.30;;;;;;;12.59;72.26;99567.63;107783;1254;61254;-71
2024/03/31 00:16:06;;;;;;;7.80;3.90;;;;;;;12.55;72.67;99571.46;107828;1251;59958;-77
2024/03/31 00:18:33;;;;;;;9.80;4.70;;;;;;;12.61;72.48;99571.83;109044;1253;73396;-78
2024/03/31 00:21:01;;;;;;;10.20;3.90;;;;;;;12.64;72.43;99577.98;109243;1250;68928;-79
2024/03/31 00:23:28;;;;;;;8.30;3.60;;;;;;;12.60;72.29;99578.77;109569;1251;71215;-80
2024/03/31 00:25:59;;;;;;;10.30;4.30;;;;;;;12.54;72.86;99575.77;109459;1251;61049;-81
2024/03/31 00:28:27;;;;;;;8.60;4.70;;;;;;;12.51;73.05;99577.25;109601;1251;58789;-79
2024/03/31 00:30:58;;;;;;;8.20;3.90;;;;;;;12.47;73.06;99578.30;109525;1251;72857;-78
2024/03/31 00:33:25;;;;;;;7.50;3.50;;;;;;;12.49;73.16;99576.57;109436;1251;68664;-82
2024/03/31 00:35:57;;;;;;;8.70;4.00;;;;;;;12.56;73.16;99582.51;109427;1251;73727;-78
2024/03/31 00:38:24;;;;;;;12.80;5.70;;;;;;;12.54;73.18;99585.42;109155;1252;59228;-81
2024/03/31 00:40:51;;;;;;;8.40;4.30;;;;;;;12.50;73.47;99583.13;109579;1251;58747;-81
2024/03/31 00:43:19;;;;;;;9.20;4.70;;;;;;;12.45;73.75;99576.71;109394;1252;73528;-79
2024/03/31 00:45:46;;;;;;;11.40;4.40;;;;;;;12.42;73.80;99574.09;109500;1251;69000;-78
2024/03/31 00:48:13;;;;;;;10.00;4.50;;;;;;;12.43;73.90;99575.52;109468;1251;71380;-81
2024/03/31 00:50:41;;;;;;;10.20;4.90;;;;;;;12.52;73.72;99574.77;109386;1252;59218;-79
2024/03/31 00:53:08;;;;;;;9.40;4.50;;;;;;;12.54;73.85;99571.75;109582;1251;58736;-80
2024/03/31 00:55:35;;;;;;;9.10;5.00;;;;;;;12.51;73.88;99566.98;109394;1251;73553;-79
2024/03/31 00:58:03;;;;;;;9.70;4.90;;;;;;;12.48;73.90;99566.23;109167;1251;69049;-79
2024/03/31 01:00:30;;;;;;;12.00;5.30;;;;;;;12.45;73.99;99562.89;108874;1251;71409;-80
2024/03/31 01:02:57;;;;;;;11.90;4.60;;;;;;;12.41;74.05;99561.05;109080;1251;62540;-81
2024/03/31 01:05:25;;;;;;;8.90;4.00;;;;;;;12.47;73.97;99561.38;109267;1251;61088;-81
2024/03/31 01:07:52;;;;;;;7.50;4.00;;;;;;;12.50;73.99;99564.73;109204;1251;74609;-80
2024/03/31 01:10:19;;;;;;;11.20;4.70;;;;;;;12.45;74.13;99568.15;109025;1251;68844;-78
2024/03/31 01:12:47;;;;;;;12.70;5.00;;;;;;;12.38;74.33;99567.59;109441;1251;71683;-81
2024/03/31 01:15:21;;;;;;;7.50;4.70;;;;;;;12.32;74.60;99568.61;109362;1253;58976;-81
2024/03/31 01:17:50;;;;;;;11.50;4.60;;;;;;;12.27;74.78;99565.02;109319;1252;58735;-81
2024/03/31 01:20:17;;;;;;;9.30;4.70;;;;;;;12.31;74.81;99568.12;109184;1251;73384;-80
2024/03/31 01:22:45;;;;;;;11.20;5.40;;;;;;;12.31;74.86;99575.41;109242;1251;68727;-80
2024/03/31 01:25:12;;;;;;;7.10;4.20;;;;;;;12.26;75.06;99572.30;109308;1251;71517;-80
2024/03/31 01:27:39;;;;;;;9.00;4.50;;;;;;;12.20;75.26;99577.55;109304;1251;59806;-82
2024/03/31 01:30:07;;;;;;;9.00;4.60;;;;;;;12.15;75.48;99573.59;109278;1251;58849;-82
2024/03/31 01:32:34;;;;;;;9.40;4.30;;;;;;;12.13;75.75;99573.48;109208;1253;73444;-81
2024/03/31 01:35:01;;;;;;;9.60;4.60;;;;;;;12.20;75.60;99582.31;108986;1251;69033;-82
2024/03/31 01:37:29;;;;;;;9.70;5.90;;;;;;;12.22;75.44;99583.16;109400;1251;71599;-81
2024/03/31 01:39:58;;;;;;;8.50;4.60;;;;;;;12.18;75.64;99581.00;109560;1251;58830;-81
2024/03/31 01:42:25;;;;;;;10.40;4.60;;;;;;;12.14;75.78;99577.92;109343;1251;58740;-81
2024/03/31 01:46:01;;;;;;;7.90;4.50;;;;;;;12.11;76.24;99576.56;105881;1291;600111;-79
2024/03/31 01:48:29;;;;;;;10.50;4.40;;;;;;;12.13;75.94;99577.50;108759;1259;61179;-81
2024/03/31 01:50:56;;;;;;;13.50;4.60;;;;;;;12.16;76.03;99580.55;108566;1260;57774;-81
2024/03/31 01:53:24;;;;;;;8.60;4.40;;;;;;;12.12;75.97;99580.95;108696;1260;71985;-80
2024/03/31 01:55:51;;;;;;;9.30;4.80;;;;;;;12.08;76.18;99577.25;108972;1260;68995;-80
2024/03/31 01:58:19;;;;;;;13.10;4.50;;;;;;;12.04;76.41;99584.04;108839;1260;71454;-80
2024/03/31 02:00:46;;;;;;;8.40;4.50;;;;;;;12.01;76.45;99582.84;108842;1257;166939;-78
2024/03/31 02:03:13;;;;;;;11.30;4.50;;;;;;;12.09;76.27;99587.74;108856;1256;58679;-81
2024/03/31 02:05:40;;;;;;;7.80;4.50;;;;;;;12.13;76.15;99591.88;109035;1256;71756;-82
2024/03/31 02:08:08;;;;;;;10.30;5.10;;;;;;;12.10;76.13;99593.27;108902;1256;68876;-80
2024/03/31 02:10:35;;;;;;;11.90;5.00;;;;;;;12.07;76.25;99592.07;108198;1257;71474;-82
2024/03/31 02:13:03;;;;;;;12.30;5.40;;;;;;;12.04;76.38;99592.09;107843;1262;60746;-81
2024/03/31 02:15:30;;;;;;;12.50;4.50;;;;;;;12.04;76.30;99593.01;108840;1254;61032;-81
2024/03/31 02:17:58;;;;;;;8.50;4.40;;;;;;;12.11;75.98;99592.00;109275;1254;72635;-82
2024/03/31 02:20:25;;;;;;;8.30;5.10;;;;;;;12.12;75.75;99592.14;109364;1254;69019;-82
2024/03/31 02:22:52;;;;;;;13.60;6.10;;;;;;;12.10;75.85;99590.88;109312;1255;71198;-81
2024/03/31 02:25:19;;;;;;;12.50;5.50;;;;;;;12.07;75.97;99591.02;108781;1255;60335;-83
2024/03/31 02:27:47;;;;;;;8.50;5.10;;;;;;;12.03;76.18;99592.05;108000;1260;60297;-80
2024/03/31 02:30:14;;;;;;;12.60;4.90;;;;;;;12.00;76.26;99592.04;108528;1254;72474;-82
2024/03/31 02:32:42;;;;;;;7.80;4.70;;;;;;;12.04;76.19;99592.27;109298;1254;68777;-82
2024/03/31 02:35:09;;;;;;;10.10;5.20;;;;;;;12.02;76.22;99591.08;109318;1256;71196;-81
2024/03/31 02:37:36;;;;;;;12.30;6.20;;;;;;;11.96;76.33;99595.26;108036;1260;60359;-82
2024/03/31 02:40:04;;;;;;;10.70;5.20;;;;;;;11.92;76.68;99593.97;106872;1259;60392;-80
2024/03/31 02:42:33;;;;;;;10.90;5.10;;;;;;;11.89;76.88;99594.34;107080;1261;72619;-76
2024/03/31 02:45:01;;;;;;;10.30;4.90;;;;;;;11.94;76.74;99599.80;106418;1260;68984;-81
2024/03/31 02:47:29;;;;;;;12.10;5.00;;;;;;;11.97;76.55;99594.05;106034;1258;72801;-82
2024/03/31 02:49:56;;;;;;;12.50;5.50;;;;;;;11.95;76.65;99590.27;106170;1259;60525;-81
2024/03/31 02:52:24;;;;;;;9.80;5.10;;;;;;;11.92;76.63;99587.23;106992;1257;60025;-84
2024/03/31 02:54:51;;;;;;;12.40;5.40;;;;;;;11.90;76.85;99589.30;108486;1255;72547;-80
2024/03/31 02:57:19;;;;;;;13.40;5.00;;;;;;;11.90;76.87;99591.95;106901;1260;69050;-82
2024/03/31 02:59:46;;;;;;;11.60;5.00;;;;;;;11.97;76.51;99592.70;106070;1259;71845;-81
2024/03/31 03:02:14;;;;;;;13.00;5.20;;;;;;;11.98;76.31;99594.02;105854;1262;61702;-81
2024/03/31 03:04:42;;;;;;;9.40;4.80;;;;;;;11.94;76.50;99591.32;106029;1260;60506;-81
2024/03/31 03:07:09;;;;;;;11.10;6.00;;;;;;;11.90;76.76;99593.13;106007;1258;73863;-81
2024/03/31 03:09:36;;;;;;;14.10;5.50;;;;;;;11.87;76.62;99588.89;106034;1254;69225;-79
2024/03/31 03:12:04;;;;;;;11.50;4.70;;;;;;;11.89;76.61;99591.21;107166;1258;73815;-79
2024/03/31 03:14:31;;;;;;;10.70;4.70;;;;;;;11.97;76.39;99591.06;106618;1254;60519;-79
2024/03/31 03:16:58;;;;;;;10.50;5.40;;;;;;;11.99;76.39;99590.13;106371;1259;60670;-79
2024/03/31 03:19:26;;;;;;;11.20;5.90;;;;;;;11.96;76.40;99589.02;105812;1255;72533;-81
2024/03/31 03:21:53;;;;;;;13.30;5.90;;;;;;;11.94;76.34;99587.56;106017;1260;69159;-80
2024/03/31 03:24:21;;;;;;;16.00;5.00;;;;;;;11.91;76.55;99587.15;106177;1259;73636;-81
2024/03/31 03:26:48;;;;;;;12.00;5.10;;;;;;;11.89;76.47;99588.79;107646;1254;60488;-78
2024/03/31 03:29:18;;;;;;;10.30;5.20;;;;;;;11.96;76.31;99589.97;108300;1256;60798;-80
2024/03/31 03:31:46;;;;;;;10.80;4.90;;;;;;;11.99;76.13;99590.55;106758;1263;72608;-79
2024/03/31 03:34:14;;;;;;;10.40;5.20;;;;;;;11.95;76.24;99594.14;106142;1260;68909;-80
2024/03/31 03:36:42;;;;;;;14.50;6.10;;;;;;;11.93;76.27;99592.14;105831;1259;72716;-80
2024/03/31 03:39:09;;;;;;;13.60;5.20;;;;;;;11.89;76.45;99591.15;105756;1257;60556;-79
2024/03/31 03:41:36;;;;;;;9.70;5.20;;;;;;;11.87;76.47;99592.02;105850;1270;60495;-80
2024/03/31 03:44:04;;;;;;;14.50;5.30;;;;;;;11.95;76.41;99597.94;105830;1259;72662;-80
2024/03/31 03:46:31;;;;;;;16.00;6.30;;;;;;;11.95;76.45;99602.03;106076;1254;70536;-80
2024/03/31 03:48:59;;;;;;;12.20;6.30;;;;;;;11.89;76.62;99608.85;106142;1256;71377;-82
2024/03/31 03:51:26;;;;;;;10.80;5.70;;;;;;;11.84;76.93;99610.52;106141;1257;61180;-83
2024/03/31 03:53:53;;;;;;;12.80;5.70;;;;;;;11.79;77.32;99606.63;106089;1254;60422;-80
2024/03/31 03:56:21;;;;;;;10.80;5.80;;;;;;;11.85;77.14;99605.84;106275;1257;73848;-82
2024/03/31 03:58:49;;;;;;;11.00;5.70;;;;;;;11.87;77.32;99609.29;106248;1258;70026;-80
2024/03/31 04:01:16;;;;;;;12.50;6.40;;;;;;;11.83;77.23;99611.35;106069;1254;72668;-82
2024/03/31 04:03:44;;;;;;;13.90;6.70;;;;;;;11.78;77.51;99613.52;106202;1266;60283;-81
2024/03/31 04:06:12;;;;;;;9.90;5.40;;;;;;;11.74;77.65;99610.05;106197;1254;60804;-82
2024/03/31 04:08:39;;;;;;;14.80;5.70;;;;;;;11.77;77.78;99610.77;106068;1254;72560;-80
2024/03/31 04:11:08;;;;;;;10.20;5.40;;;;;;;11.76;77.90;99608.05;106129;1260;69042;-79
2024/03/31 04:13:35;;;;;;;14.10;6.70;;;;;;;11.70;77.95;99602.38;106471;1255;72680;-76
2024/03/31 04:16:03;;;;;;;11.10;5.80;;;;;;;11.67;78.16;99608.41;107609;1254;60629;-81
2024/03/31 04:18:37;;;;;;;9.70;5.10;;;;;;;11.68;78.29;99609.18;108022;1256;60196;-79
2024/03/31 04:21:09;;;;;;;11.60;5.50;;;;;;;11.75;77.89;99602.66;107467;1254;74702;-82
2024/03/31 04:23:36;;;;;;;10.40;5.30;;;;;;;11.77;77.91;99603.15;109020;1254;71117;-80
2024/03/31 04:26:04;;;;;;;9.90;5.80;;;;;;;11.76;78.00;99607.19;108542;1254;70488;-81
2024/03/31 04:28:31;;;;;;;10.60;5.10;;;;;;;11.77;78.01;99612.00;107276;1254;60495;-81
2024/03/31 04:31:03;;;;;;;10.20;5.10;;;;;;;11.78;78.21;99611.89;106340;1254;60498;-77
2024/03/31 04:33:31;;;;;;;12.20;5.40;;;;;;;11.86;77.86;99609.23;106648;1255;73832;-78
2024/03/31 04:36:00;;;;;;;9.90;5.80;;;;;;;11.89;77.80;99612.58;107845;1254;71495;-79
2024/03/31 04:38:28;;;;;;;22.00;12.80;;;;;;;11.88;77.77;99611.64;107301;1255;71461;-81
2024/03/31 04:40:56;;;;;;;15.20;6.10;;;;;;;11.86;77.66;99614.39;106568;1255;60565;-79
2024/03/31 04:43:23;;;;;;;11.50;5.50;;;;;;;11.88;77.86;99616.04;106495;1254;60473;-80
2024/03/31 04:46:04;;;;;;;10.30;5.80;;;;;;;11.96;77.44;99615.29;106298;1255;72540;-81
2024/03/31 04:48:35;;;;;;;14.60;6.50;;;;;;;11.97;77.47;99620.33;106350;1254;68721;-81
2024/03/31 04:51:07;;;;;;;11.70;5.70;;;;;;;11.96;77.74;99619.18;106584;1254;71987;-80
2024/03/31 04:53:37;;;;;;;9.80;5.50;;;;;;;11.94;77.59;99616.46;107739;1258;60287;-81
2024/03/31 04:56:07;;;;;;;13.40;5.70;;;;;;;12.00;77.46;99623.75;107727;1254;60479;-80
2024/03/31 04:58:34;;;;;;;13.50;5.50;;;;;;;12.09;77.20;99620.89;107896;1252;72396;-81
2024/03/31 05:01:01;;;;;;;12.00;5.60;;;;;;;12.11;77.32;99618.09;108589;1257;70145;-81
2024/03/31 05:03:29;;;;;;;14.90;6.10;;;;;;;12.13;77.29;99620.63;106708;1259;71411;-82
2024/03/31 05:05:56;;;;;;;12.40;5.60;;;;;;;12.14;77.21;99621.63;106780;1254;59374;-83
2024/03/31 05:08:23;;;;;;;12.70;5.70;;;;;;;12.20;77.18;99624.62;107801;1258;59044;-80
2024/03/31 05:10:57;;;;;;;13.80;5.60;;;;;;;12.30;76.87;99617.56;107432;1254;72556;-82
2024/03/31 05:13:30;;;;;;;10.60;5.90;;;;;;;12.33;76.63;99615.40;107348;1260;69488;-81
2024/03/31 05:16:04;;;;;;;14.90;6.00;;;;;;;12.33;76.66;99619.34;108731;1253;71069;-81
2024/03/31 05:18:32;;;;;;;12.00;6.20;;;;;;;12.33;76.75;99620.94;109498;1252;59627;-82
2024/03/31 05:21:06;;;;;;;16.70;6.10;;;;;;;12.35;76.73;99625.39;107497;1260;60492;-82
2024/03/31 05:23:34;;;;;;;16.80;5.30;;;;;;;12.43;76.47;99617.86;106760;1257;73905;-79
2024/03/31 05:26:02;;;;;;;12.80;5.90;;;;;;;12.44;76.27;99621.08;108154;1254;68745;-79
2024/03/31 05:28:29;;;;;;;11.80;6.30;;;;;;;12.42;76.54;99621.97;108686;1254;71583;-81
2024/03/31 05:30:57;;;;;;;13.50;6.40;;;;;;;12.42;76.48;99623.46;107816;1259;60344;-76
2024/03/31 05:33:24;;;;;;;14.10;6.70;;;;;;;12.43;76.51;99620.27;107577;1254;60286;-80
2024/03/31 05:35:55;;;;;;;11.40;6.20;;;;;;;12.52;76.21;99620.10;107544;1254;72839;-82
2024/03/31 05:38:22;;;;;;;12.90;5.60;;;;;;;12.59;76.12;99619.74;106635;1255;72175;-81
2024/03/31 05:41:02;;;;;;;16.80;6.90;;;;;;;12.61;75.78;99618.89;106173;1258;71421;-81
2024/03/31 05:43:30;;;;;;;16.20;6.60;;;;;;;12.63;75.85;99615.48;106227;1254;60507;-82
2024/03/31 05:45:58;;;;;;;15.90;6.60;;;;;;;12.65;75.71;99614.94;106588;1259;60427;-81
2024/03/31 05:48:27;;;;;;;11.10;5.80;;;;;;;12.68;75.61;99617.27;108419;1254;72397;-83
2024/03/31 05:50:54;;;;;;;18.80;7.30;;;;;;;12.78;75.22;99622.14;106428;1259;68706;-82
2024/03/31 05:53:22;;;;;;;19.50;6.30;;;;;;;12.87;74.95;99620.59;106063;1260;71444;-80
2024/03/31 05:55:50;;;;;;;11.40;6.00;;;;;;;12.90;74.66;99619.86;105995;1260;61416;-82
2024/03/31 05:58:17;;;;;;;17.30;6.10;;;;;;;12.91;74.47;99641.00;105826;1260;60058;-79
2024/03/31 06:00:45;;;;;;;16.60;6.30;;;;;;;12.93;74.47;99649.10;105849;1254;73723;-80
2024/03/31 06:03:12;;;;;;;13.30;5.70;;;;;;;12.97;74.42;99650.59;105844;1259;69229;-82
2024/03/31 06:05:39;;;;;;;13.30;6.80;;;;;;;13.06;74.09;99647.55;105984;1258;71472;-81
2024/03/31 06:08:07;;;;;;;17.20;7.10;;;;;;;13.12;73.88;99637.95;106261;1260;61669;-81
2024/03/31 06:10:37;;;;;;;15.00;6.50;;;;;;;13.17;73.93;99638.06;107439;1253;61878;-82
2024/03/31 06:13:07;;;;;;;21.10;7.90;;;;;;;13.25;73.72;99634.27;109032;1254;73420;-83
2024/03/31 06:15:34;;;;;;;17.20;7.40;;;;;;;13.32;73.36;99636.92;108168;1254;68731;-83
2024/03/31 06:18:01;;;;;;;13.10;7.50;;;;;;;13.38;73.16;99635.50;107349;1254;71408;-82
2024/03/31 06:20:30;;;;;;;18.10;6.70;;;;;;;13.46;73.01;99627.38;108066;1259;61159;-81
2024/03/31 06:22:57;;;;;;;13.80;6.60;;;;;;;13.60;72.64;99623.73;106073;1255;61219;-81
2024/03/31 06:25:24;;;;;;;22.50;8.00;;;;;;;13.67;72.21;99624.10;105956;1259;74726;-79
2024/03/31 06:27:52;;;;;;;15.80;7.60;;;;;;;13.71;72.00;99618.16;106179;1254;67934;-81
2024/03/31 06:30:19;;;;;;;18.60;8.50;;;;;;;13.74;71.93;99615.80;105957;1260;71208;-79
2024/03/31 06:32:47;;;;;;;17.20;8.30;;;;;;;13.78;71.69;99623.98;106690;1254;61297;-80
2024/03/31 06:35:14;;;;;;;14.60;8.30;;;;;;;13.84;71.67;99620.14;106954;1254;61489;-80
2024/03/31 06:37:41;;;;;;;16.80;7.20;;;;;;;13.91;71.45;99621.34;106690;1254;73372;-80
2024/03/31 06:40:09;;;;;;;20.60;7.60;;;;;;;14.02;71.31;99625.78;105956;1261;68942;-80
2024/03/31 06:42:36;;;;;;;19.10;7.70;;;;;;;14.19;70.79;99628.97;105901;1254;72716;-80
2024/03/31 06:45:04;;;;;;;18.70;7.70;;;;;;;14.31;70.39;99634.05;105854;1254;61275;-81
2024/03/31 06:47:34;;;;;;;16.90;7.40;;;;;;;14.42;70.26;99632.48;106054;1257;61243;-81
2024/03/31 06:50:02;;;;;;;22.30;7.10;;;;;;;14.51;69.62;99633.98;106161;1254;73601;-80
2024/03/31 06:52:30;;;;;;;20.50;7.60;;;;;;;14.59;69.09;99630.71;105940;1254;68721;-78
2024/03/31 06:54:57;;;;;;;12.80;7.30;;;;;;;14.65;68.90;99634.02;105885;1254;71416;-78
2024/03/31 06:57:24;;;;;;;13.40;7.10;;;;;;;14.71;68.69;99632.16;105802;1252;61344;-79
2024/03/31 06:59:52;;;;;;;15.30;6.40;;;;;;;14.79;68.53;99628.36;106036;1254;61393;-79
2024/03/31 07:02:19;;;;;;;15.50;7.30;;;;;;;14.90;68.58;99620.89;105861;1254;74585;-79
2024/03/31 07:07:25;;;;;;;14.80;6.70;;;;;;;15.19;67.68;99632.11;105621;1286;600279;-80
2024/03/31 07:09:54;;;;;;;16.50;7.10;;;;;;;15.31;67.28;99636.57;107159;1271;59655;-80
2024/03/31 07:12:22;;;;;;;13.40;6.20;;;;;;;15.45;66.87;99640.42;105952;1268;59692;-80
2024/03/31 07:14:49;;;;;;;13.70;6.30;;;;;;;15.60;66.37;99634.03;107042;1268;71467;-78
2024/03/31 07:17:17;;;;;;;16.40;6.60;;;;;;;15.74;65.68;99632.67;106318;1268;69359;-80
2024/03/31 07:19:44;;;;;;;16.40;6.60;;;;;;;15.90;65.48;99624.58;106690;1268;72823;-79
2024/03/31 07:22:12;;;;;;;18.90;6.30;;;;;;;16.05;65.39;99627.70;106163;1254;204053;-79
2024/03/31 07:24:39;;;;;;;19.80;6.60;;;;;;;16.23;64.82;99630.79;105920;1254;60041;-80
2024/03/31 07:27:08;;;;;;;14.90;6.30;;;;;;;16.39;64.23;99628.95;105848;1256;73292;-81
2024/03/31 07:29:36;;;;;;;14.00;6.60;;;;;;;16.57;63.72;99634.95;105931;1255;72583;-81
2024/03/31 07:32:04;;;;;;;17.30;5.80;;;;;;;16.73;63.10;99633.91;106032;1256;71210;-80
2024/03/31 07:34:31;;;;;;;14.70;6.00;;;;;;;16.88;62.76;99630.88;105686;1257;60541;-79
2024/03/31 07:36:59;;;;;;;16.60;6.70;;;;;;;17.03;62.29;99637.77;106197;1261;60506;-79
2024/03/31 07:39:26;;;;;;;13.20;6.00;;;;;;;17.18;61.92;99638.64;106653;1260;73662;-80
2024/03/31 07:41:54;;;;;;;16.90;6.00;;;;;;;17.31;61.16;99643.00;106725;1263;68701;-81
2024/03/31 07:44:21;;;;;;;16.20;5.50;;;;;;;17.42;60.60;99642.19;106908;1255;70467;-80
2024/03/31 07:46:50;;;;;;;15.90;6.00;;;;;;;17.56;60.00;99645.18;106275;1254;60420;-81
2024/03/31 07:49:17;;;;;;;14.70;6.10;;;;;;;17.65;59.63;99645.60;106159;1254;60350;-79
2024/03/31 07:51:44;;;;;;;17.40;6.70;;;;;;;17.73;59.63;99637.55;108132;1255;74893;-79
2024/03/31 07:54:12;;;;;;;16.70;5.90;;;;;;;17.87;59.30;99641.64;108179;1256;71514;-77
2024/03/31 07:56:39;;;;;;;19.60;5.80;;;;;;;18.00;58.95;99644.44;107722;1258;71437;-77
2024/03/31 07:59:06;;;;;;;16.30;5.40;;;;;;;18.12;58.80;99636.48;106471;1260;60883;-76
2024/03/31 08:01:34;;;;;;;13.40;6.00;;;;;;;18.26;58.66;99627.89;108289;1254;60856;-81
2024/03/31 08:04:01;;;;;;;15.20;5.50;;;;;;;18.41;58.28;99626.25;108879;1255;72783;-79
2024/03/31 08:06:28;;;;;;;16.10;6.10;;;;;;;18.58;57.67;99629.63;107708;1255;68774;-79
2024/03/31 08:08:55;;;;;;;21.80;5.90;;;;;;;18.73;57.31;99625.70;107794;1256;72630;-79
2024/03/31 08:11:23;;;;;;;18.60;5.60;;;;;;;18.88;57.13;99622.66;108103;1254;60508;-76
2024/03/31 08:13:50;;;;;;;15.50;5.90;;;;;;;19.05;56.89;99615.70;107740;1258;60341;-82
2024/03/31 08:16:18;;;;;;;15.70;5.50;;;;;;;19.23;56.47;99620.69;107567;1256;72587;-81
2024/03/31 08:18:46;;;;;;;18.80;6.40;;;;;;;19.41;55.68;99618.62;106566;1255;70117;-79
2024/03/31 08:21:13;;;;;;;14.60;5.80;;;;;;;19.55;55.41;99618.83;106315;1264;74840;-80
2024/03/31 08:23:40;;;;;;;19.70;6.20;;;;;;;19.70;55.34;99617.77;106143;1260;60719;-77
2024/03/31 08:26:08;;;;;;;13.60;6.30;;;;;;;19.90;55.31;99617.33;105610;1260;62157;-78
2024/03/31 08:28:36;;;;;;;18.50;5.40;;;;;;;20.12;54.20;99625.66;105985;1256;72893;-78
2024/03/31 08:31:03;;;;;;;16.70;6.50;;;;;;;20.30;53.87;99618.30;106027;1259;68730;-77
2024/03/31 08:33:31;;;;;;;18.30;5.80;;;;;;;20.48;53.35;99614.08;106069;1261;71413;-79
2024/03/31 08:35:59;;;;;;;13.20;5.70;;;;;;;20.67;52.60;99612.23;105906;1261;60528;-76
2024/03/31 08:38:26;;;;;;;13.80;5.00;;;;;;;20.85;52.58;99609.55;105985;1259;60957;-78
2024/03/31 08:41:08;;;;;;;17.00;5.40;;;;;;;21.02;51.85;99604.91;105882;1256;72574;-79
2024/03/31 08:43:39;;;;;;;16.40;6.00;;;;;;;21.18;51.60;99607.38;105924;1256;70167;-78
2024/03/31 08:46:07;;;;;;;16.50;5.50;;;;;;;21.34;51.34;99601.02;105934;1259;71501;-80
2024/03/31 08:48:38;;;;;;;16.10;5.80;;;;;;;21.53;50.72;99603.81;106266;1255;60496;-78
2024/03/31 08:51:05;;;;;;;15.80;6.00;;;;;;;21.73;50.47;99597.78;106356;1259;60236;-78
2024/03/31 08:53:33;;;;;;;17.80;5.60;;;;;;;21.94;50.02;99590.23;107029;1256;74981;-78
2024/03/31 08:56:01;;;;;;;26.90;5.60;;;;;;;22.18;49.29;99596.98;106598;1256;70365;-76
2024/03/31 08:58:28;;;;;;;17.30;5.10;;;;;;;22.43;48.84;99590.52;106826;1256;72521;-77
2024/03/31 09:00:56;;;;;;;21.60;5.30;;;;;;;22.66;47.98;99590.13;106400;1256;60563;-78
2024/03/31 09:03:24;;;;;;;15.40;5.20;;;;;;;22.88;47.41;99588.34;106492;1256;61118;-77
2024/03/31 09:05:51;;;;;;;18.50;5.30;;;;;;;23.07;47.32;99584.73;106442;1255;75998;-78
2024/03/31 09:08:18;;;;;;;16.80;6.20;;;;;;;23.32;46.87;99585.38;105913;1255;70652;-77
2024/03/31 09:11:09;;;;;;;15.80;5.90;;;;;;;23.64;46.19;99581.17;106089;1258;72953;-78
2024/03/31 09:13:36;;;;;;;21.00;6.50;;;;;;;23.97;45.75;99573.70;105932;1261;60468;-78
2024/03/31 09:16:05;;;;;;;17.40;6.00;;;;;;;24.36;45.98;99570.97;105902;1256;60395;-79
2024/03/31 09:18:32;;;;;;;16.90;6.30;;;;;;;24.83;45.31;99571.20;105819;1256;71886;-78
2024/03/31 09:21:00;;;;;;;18.60;6.10;;;;;;;25.32;44.19;99573.63;105896;1256;69264;-78
2024/03/31 09:23:28;;;;;;;17.70;5.90;;;;;;;25.84;43.47;99571.64;105918;1256;72735;-79
2024/03/31 09:25:55;;;;;;;17.30;6.10;;;;;;;26.36;41.97;99572.06;105722;1261;60448;-79
2024/03/31 09:28:23;;;;;;;15.50;5.70;;;;;;;26.77;40.21;99578.05;105848;1256;60541;-79
2024/03/31 09:30:51;;;;;;;19.90;6.30;;;;;;;26.93;39.38;99572.98;106038;1255;72584;-79
2024/03/31 09:33:18;;;;;;;15.80;5.40;;;;;;;26.97;39.78;99572.89;105965;1258;68723;-78
2024/03/31 09:35:46;;;;;;;15.40;6.20;;;;;;;27.15;39.59;99574.90;105973;1256;74914;-77
2024/03/31 09:38:13;;;;;;;19.90;5.30;;;;;;;27.41;39.43;99573.84;105848;1256;60639;-77
2024/03/31 09:40:41;;;;;;;17.80;5.70;;;;;;;27.66;38.83;99574.63;106132;1256;60544;-78
2024/03/31 09:43:09;;;;;;;17.20;5.60;;;;;;;27.91;38.54;99576.73;106257;1255;73887;-77
2024/03/31 09:45:41;;;;;;;18.10;5.70;;;;;;;28.28;37.81;99565.60;107676;1261;68733;-76
2024/03/31 09:48:11;;;;;;;14.80;5.70;;;;;;;28.63;36.99;99565.55;106100;1256;71759;-79
2024/03/31 09:51:00;;;;;;;20.10;6.00;;;;;;;28.91;36.46;99576.30;106998;1254;60398;-76
2024/03/31 09:53:28;;;;;;;15.50;5.00;;;;;;;28.93;35.95;99581.18;108550;1254;59342;-78
2024/03/31 09:56:01;;;;;;;15.20;5.50;;;;;;;28.92;36.35;99566.51;108098;1256;74792;-77
2024/03/31 09:58:33;;;;;;;14.30;5.70;;;;;;;29.12;36.90;99559.33;107524;1255;71237;-76
2024/03/31 10:01:02;;;;;;;12.20;6.00;;;;;;;29.73;37.09;99559.12;106763;1255;72336;-76
2024/03/31 10:03:35;;;;;;;18.30;6.80;;;;;;;30.42;36.73;99558.42;106539;1256;61238;-79
2024/03/31 10:06:04;;;;;;;14.70;5.80;;;;;;;30.88;35.50;99562.60;106231;1254;60885;-77
2024/03/31 10:08:32;;;;;;;19.50;5.50;;;;;;;31.01;34.10;99575.38;106321;1255;72224;-77
2024/03/31 10:11:00;;;;;;;18.30;7.60;;;;;;;30.91;33.71;99564.08;106377;1260;71791;-77
2024/03/31 10:13:29;;;;;;;9.50;5.00;;;;;;;30.74;33.80;99547.19;106169;1259;74684;-78
2024/03/31 10:16:02;;;;;;;11.80;5.00;;;;;;;30.73;34.14;99552.91;106073;1261;62334;-80
2024/03/31 10:18:30;;;;;;;16.70;6.10;;;;;;;30.84;34.37;99539.79;106203;1261;60368;-77
2024/03/31 10:20:59;;;;;;;11.60;5.50;;;;;;;30.93;34.71;99537.81;106288;1254;74893;-80
2024/03/31 10:23:26;;;;;;;12.10;4.70;;;;;;;31.15;34.01;99534.67;107331;1255;72707;-80
2024/03/31 10:25:53;;;;;;;11.30;4.60;;;;;;;31.35;33.25;99532.39;106232;1256;75640;-78
2024/03/31 10:28:21;;;;;;;12.30;4.90;;;;;;;31.44;32.73;99543.48;105961;1255;60500;-76
2024/03/31 10:30:48;;;;;;;10.90;4.10;;;;;;;31.30;32.49;99546.35;106062;1256;61522;-75
2024/03/31 10:33:15;;;;;;;12.20;4.70;;;;;;;31.07;32.17;99539.74;106117;1261;75709;-77
2024/03/31 10:35:55;;;;;;;16.00;4.90;;;;;;;30.86;32.66;99526.36;106185;1255;72827;-77
2024/03/31 10:38:23;;;;;;;17.70;4.40;;;;;;;30.93;32.67;99533.96;106241;1259;74584;-78
2024/03/31 10:40:50;;;;;;;11.70;4.80;;;;;;;30.99;32.79;99526.25;106148;1256;60793;-78
2024/03/31 10:43:19;;;;;;;12.00;4.80;;;;;;;30.98;32.64;99537.81;106229;1261;60854;-78
2024/03/31 10:45:46;;;;;;;15.10;5.10;;;;;;;30.89;32.52;99531.47;106541;1254;72451;-80
2024/03/31 10:48:20;;;;;;;12.10;5.10;;;;;;;30.84;33.08;99521.80;108552;1256;71466;-80
2024/03/31 10:50:48;;;;;;;14.00;4.40;;;;;;;31.10;32.71;99530.51;108281;1260;72919;-78
2024/03/31 10:53:25;;;;;;;7.70;3.90;;;;;;;31.33;32.20;99531.89;106419;1256;60521;-78
2024/03/31 10:55:52;;;;;;;12.20;4.60;;;;;;;31.50;32.13;99534.45;106167;1255;60342;-79
2024/03/31 10:58:21;;;;;;;9.60;4.40;;;;;;;31.63;32.04;99522.23;106078;1256;72729;-80
2024/03/31 11:00:48;;;;;;;11.50;4.20;;;;;;;31.86;32.01;99516.96;105864;1261;69263;-79
2024/03/31 11:03:25;;;;;;;13.80;4.60;;;;;;;32.19;31.37;99523.95;105810;1256;74977;-79
2024/03/31 11:05:52;;;;;;;12.30;4.80;;;;;;;32.19;31.25;99505.20;105820;1257;60500;-77
2024/03/31 11:08:20;;;;;;;14.80;5.40;;;;;;;32.22;31.43;99499.06;105805;1256;60546;-76
2024/03/31 11:10:47;;;;;;;10.70;4.40;;;;;;;32.43;31.52;99484.02;106475;1256;73965;-78
2024/03/31 11:13:17;;;;;;;8.80;3.90;;;;;;;32.88;30.86;99485.10;106650;1256;70560;-78
2024/03/31 11:15:45;;;;;;;8.40;4.20;;;;;;;33.25;30.14;99487.95;106312;1256;71194;-76
2024/03/31 11:18:12;;;;;;;8.30;3.90;;;;;;;33.28;29.83;99490.67;105854;1262;61348;-77
2024/03/31 11:20:43;;;;;;;10.10;4.50;;;;;;;33.22;30.07;99484.78;105693;1261;61163;-78
2024/03/31 11:23:14;;;;;;;8.60;4.20;;;;;;;33.26;30.04;99474.09;106072;1254;76906;-78
2024/03/31 11:25:42;;;;;;;7.70;4.10;;;;;;;33.25;30.00;99480.18;107104;1254;70319;-76
2024/03/31 11:28:09;;;;;;;11.20;4.90;;;;;;;33.20;29.62;99486.34;106355;1256;73643;-79